Historyczne dane pomiarowe

Dodano dane terminowe – wersja testowa.

Dane z okresu 1951-2019

Wersja bazy: 1.34 [2019-03-16, lista zmian], aktualizacja planowana na 2019-04-15

Dane meteo z obszaru Polski uzyskane na podstawie danych udostępnionych przez Instytut Meteorologii i Gospodarki Wodnej – Państwowy Instytut Badawczy.

 

Wybierz Datę:    

       

TemperaturaWilgotnośćZachmurzenieWiatrCiśnienieWidzialnośćZjawiska
 Data    tng td wb rh cc ccl cl cm ch dir g1 g2 mslp ppp      
1994-08-02 00:00:00 17.9--- 13.8 15.477wxwx0wx--1013.7 973.7 0.0---wx
1994-08-02 01:00:00 17.2--- 14.3 15.483wxwx3wx--1014.3 974.2----wx
1994-08-02 02:00:00 16.3--- 13.6 14.784wxwx1wx--1014.7 974.4----wx
1994-08-02 03:00:00 15.3--- 12.9 13.986wxwx0wx--1015.5 975.1----wx
1994-08-02 04:00:00 15.6--- 13.9 14.690wxwxwx0wx--1016.1 975.7----wx
1994-08-02 05:00:00 17.0--- 15.1 15.888wxwxwx0wx--1016.8 976.5----wx
1994-08-02 06:00:00 21.7--- 15.7 17.969wxwxwx2wx--1016.6 977.0 0.0---wx
1994-08-02 07:00:00 23.3--- 16.5 18.966wxwxwx3wx--1016.5 977.1----wx
1994-08-02 08:00:00 24.8--- 17.0 19.762wxwxwx3wx--1016.5 977.3----wx
1994-08-02 09:00:00 26.4--- 16.6 20.055wxwxwx2wx--1016.2 977.2----wx
1994-08-02 10:00:00 27.6--- 16.7 20.451wxwxwx2wx--1015.9 977.1----wx
1994-08-02 11:00:00 28.3--- 17.9 21.353wxwxwxwx3wx--1015.8 977.1----wx
1994-08-02 12:00:00 28.8--- 17.8 21.451wxwxwxwx3wx--1015.8 977.1 0.0---wx
1994-08-02 13:00:00 29.1--- 17.8 21.551wxwxwxwx4wx--1015.7 977.1----wx
1994-08-02 14:00:00 27.3--- 17.9 21.056wxwxwxwx5wx--1016.3 977.4----wx
1994-08-02 15:00:00 26.3--- 18.4 21.062wxwxwxwxwx5wx--1016.7 977.7----wx
1994-08-02 16:00:00 25.7--- 18.7 21.065wxwxwxwxwx3wx--1016.9 977.8----wx
1994-08-02 17:00:00 24.0--- 18.0 20.069wxwxwxwxwx2wx--1017.7 978.3----wx
1994-08-02 18:00:00 23.5--- 18.4 20.173wxwxwxwx2wx--1018.0 978.6 0.0---wx
1994-08-02 19:00:00 22.6--- 17.9 19.575wxwxwx2wx--1018.8 979.2----wx
1994-08-02 20:00:00 22.1--- 17.8 19.377wxwxwx2wx--1019.1 979.4----wx
1994-08-02 21:00:00 21.3--- 17.6 18.980wxwxwx0wx--1019.5 979.7----wx
1994-08-02 22:00:00 20.4--- 17.8 18.785wxwxwx0wx--1019.9 980.0----wxw1
1994-08-02 23:00:00 19.2--- 17.3 18.089wxwxwx0wx--1020.2 980.1----wxw1

 

Źródłem pochodzenia danych jest Instytut Meteorologii i Gospodarki Wodnej – Państwowy Instytut Badawczy. Dane Instytutu Meteorologii i Gospodarki Wodnej – Państwowego Instytutu Badawczego zostały przetworzone.

Dane źródłowe można odnaleźć na stronie https://dane.imgw.pl